sensor_id;sensor_type;location;lat;lon;timestamp;pressure;altitude;pressure_sealevel;temperature;humidity
63916;BME280;50094;51.356;-0.196;2022-11-20T00:02:00;100415.77;;;23.29;31.56
63916;BME280;50094;51.356;-0.196;2022-11-20T00:04:28;100410.51;;;23.68;31.59
63916;BME280;50094;51.356;-0.196;2022-11-20T00:06:55;100408.91;;;23.55;31.65
63916;BME280;50094;51.356;-0.196;2022-11-20T00:09:22;100404.03;;;23.56;31.63
63916;BME280;50094;51.356;-0.196;2022-11-20T00:11:50;100403.25;;;23.28;31.59
63916;BME280;50094;51.356;-0.196;2022-11-20T00:14:16;100402.69;;;23.48;31.64
63916;BME280;50094;51.356;-0.196;2022-11-20T00:16:43;100399.92;;;23.56;31.56
63916;BME280;50094;51.356;-0.196;2022-11-20T00:19:10;100399.96;;;23.28;31.56
63916;BME280;50094;51.356;-0.196;2022-11-20T00:21:37;100399.47;;;23.27;31.57
63916;BME280;50094;51.356;-0.196;2022-11-20T00:24:05;100395.56;;;23.53;31.55
63916;BME280;50094;51.356;-0.196;2022-11-20T00:26:32;100391.87;;;23.45;31.60
63916;BME280;50094;51.356;-0.196;2022-11-20T00:29:00;100389.58;;;23.46;31.58
63916;BME280;50094;51.356;-0.196;2022-11-20T00:31:28;100385.07;;;23.41;31.61
63916;BME280;50094;51.356;-0.196;2022-11-20T00:33:55;100379.85;;;23.19;31.57
63916;BME280;50094;51.356;-0.196;2022-11-20T00:36:26;100374.70;;;23.45;31.57
63916;BME280;50094;51.356;-0.196;2022-11-20T00:38:54;100372.51;;;23.12;31.55
63916;BME280;50094;51.356;-0.196;2022-11-20T00:41:23;100371.82;;;23.47;31.50
63916;BME280;50094;51.356;-0.196;2022-11-20T00:43:52;100365.53;;;23.47;31.48
63916;BME280;50094;51.356;-0.196;2022-11-20T00:46:21;100360.09;;;23.10;31.53
63916;BME280;50094;51.356;-0.196;2022-11-20T00:48:49;100360.06;;;23.40;31.50
63916;BME280;50094;51.356;-0.196;2022-11-20T00:51:18;100362.17;;;23.41;31.49
63916;BME280;50094;51.356;-0.196;2022-11-20T00:53:46;100361.13;;;23.34;31.49
63916;BME280;50094;51.356;-0.196;2022-11-20T00:56:15;100359.26;;;23.36;31.49
63916;BME280;50094;51.356;-0.196;2022-11-20T00:58:44;100354.92;;;23.12;31.45
63916;BME280;50094;51.356;-0.196;2022-11-20T01:01:13;100352.17;;;23.30;31.49
63916;BME280;50094;51.356;-0.196;2022-11-20T01:03:42;100346.30;;;23.08;31.45
63916;BME280;50094;51.356;-0.196;2022-11-20T01:06:11;100343.91;;;23.33;31.44
63916;BME280;50094;51.356;-0.196;2022-11-20T01:08:40;100340.86;;;23.09;31.43
63916;BME280;50094;51.356;-0.196;2022-11-20T01:11:09;100338.26;;;23.30;31.42
63916;BME280;50094;51.356;-0.196;2022-11-20T01:13:37;100339.57;;;23.30;31.38
63916;BME280;50094;51.356;-0.196;2022-11-20T01:16:07;100335.54;;;23.30;31.38
63916;BME280;50094;51.356;-0.196;2022-11-20T01:18:36;100331.54;;;23.34;31.33
63916;BME280;50094;51.356;-0.196;2022-11-20T01:21:05;100329.08;;;23.04;31.32
63916;BME280;50094;51.356;-0.196;2022-11-20T01:23:34;100321.83;;;23.08;31.27
63916;BME280;50094;51.356;-0.196;2022-11-20T01:26:02;100323.05;;;23.33;31.31
63916;BME280;50094;51.356;-0.196;2022-11-20T01:28:30;100324.10;;;23.61;31.22
63916;BME280;50094;51.356;-0.196;2022-11-20T01:30:57;100320.87;;;23.09;31.23
63916;BME280;50094;51.356;-0.196;2022-11-20T01:33:25;100316.43;;;23.39;31.24
63916;BME280;50094;51.356;-0.196;2022-11-20T01:35:53;100316.57;;;23.59;31.24
63916;BME280;50094;51.356;-0.196;2022-11-20T01:38:29;100310.97;;;23.04;31.22
63916;BME280;50094;51.356;-0.196;2022-11-20T01:40:56;100301.97;;;23.05;31.22
63916;BME280;50094;51.356;-0.196;2022-11-20T01:43:24;100294.35;;;23.03;31.23
63916;BME280;50094;51.356;-0.196;2022-11-20T01:46:24;100286.56;;;23.56;31.18
63916;BME280;50094;51.356;-0.196;2022-11-20T01:48:54;100288.62;;;23.33;31.18
63916;BME280;50094;51.356;-0.196;2022-11-20T01:51:27;100282.83;;;23.09;31.12
63916;BME280;50094;51.356;-0.196;2022-11-20T01:53:59;100281.29;;;23.27;31.14
63916;BME280;50094;51.356;-0.196;2022-11-20T01:56:28;100275.90;;;22.92;31.18
63916;BME280;50094;51.356;-0.196;2022-11-20T01:59:00;100273.27;;;22.98;31.16
63916;BME280;50094;51.356;-0.196;2022-11-20T02:01:28;100271.69;;;23.01;31.14
63916;BME280;50094;51.356;-0.196;2022-11-20T02:03:56;100267.81;;;23.24;31.13
63916;BME280;50094;51.356;-0.196;2022-11-20T02:06:25;100266.88;;;23.20;31.14
63916;BME280;50094;51.356;-0.196;2022-11-20T02:08:54;100270.33;;;23.21;31.08
63916;BME280;50094;51.356;-0.196;2022-11-20T02:11:21;100265.96;;;23.44;31.07
63916;BME280;50094;51.356;-0.196;2022-11-20T02:13:49;100263.03;;;23.40;31.10
63916;BME280;50094;51.356;-0.196;2022-11-20T02:16:21;100257.54;;;23.14;31.09
63916;BME280;50094;51.356;-0.196;2022-11-20T02:18:50;100251.73;;;23.15;31.08
63916;BME280;50094;51.356;-0.196;2022-11-20T02:21:25;100244.04;;;23.17;31.02
63916;BME280;50094;51.356;-0.196;2022-11-20T02:24:06;100237.73;;;23.19;30.98
63916;BME280;50094;51.356;-0.196;2022-11-20T02:26:40;100230.45;;;23.16;30.94
63916;BME280;50094;51.356;-0.196;2022-11-20T02:29:08;100227.94;;;23.16;30.94
63916;BME280;50094;51.356;-0.196;2022-11-20T02:31:40;100225.71;;;23.15;30.90
63916;BME280;50094;51.356;-0.196;2022-11-20T02:34:08;100217.91;;;23.36;30.87
63916;BME280;50094;51.356;-0.196;2022-11-20T02:36:38;100215.83;;;23.17;30.85
63916;BME280;50094;51.356;-0.196;2022-11-20T02:39:06;100214.03;;;23.36;30.84
63916;BME280;50094;51.356;-0.196;2022-11-20T02:41:35;100211.93;;;23.43;30.79
63916;BME280;50094;51.356;-0.196;2022-11-20T02:44:04;100209.61;;;22.92;30.76
63916;BME280;50094;51.356;-0.196;2022-11-20T02:46:32;100205.96;;;23.10;30.79
63916;BME280;50094;51.356;-0.196;2022-11-20T02:49:02;100202.60;;;23.29;30.82
63916;BME280;50094;51.356;-0.196;2022-11-20T02:51:30;100202.48;;;23.10;30.81
63916;BME280;50094;51.356;-0.196;2022-11-20T02:53:57;100200.69;;;23.12;30.82
63916;BME280;50094;51.356;-0.196;2022-11-20T02:56:24;100198.97;;;23.11;30.82
63916;BME280;50094;51.356;-0.196;2022-11-20T02:58:52;100194.62;;;23.14;30.79
63916;BME280;50094;51.356;-0.196;2022-11-20T03:01:19;100192.49;;;23.13;30.75
63916;BME280;50094;51.356;-0.196;2022-11-20T03:03:46;100199.57;;;23.38;30.76
63916;BME280;50094;51.356;-0.196;2022-11-20T03:06:13;100194.33;;;23.21;30.72
63916;BME280;50094;51.356;-0.196;2022-11-20T03:08:40;100190.74;;;23.16;30.73
63916;BME280;50094;51.356;-0.196;2022-11-20T03:11:07;100187.16;;;22.90;30.70
63916;BME280;50094;51.356;-0.196;2022-11-20T03:13:35;100188.16;;;23.32;30.76
63916;BME280;50094;51.356;-0.196;2022-11-20T03:16:07;100179.77;;;23.02;30.79
63916;BME280;50094;51.356;-0.196;2022-11-20T03:18:35;100175.83;;;23.02;30.79
63916;BME280;50094;51.356;-0.196;2022-11-20T03:21:03;100173.89;;;23.24;30.79
63916;BME280;50094;51.356;-0.196;2022-11-20T03:23:32;100168.27;;;22.91;30.86
63916;BME280;50094;51.356;-0.196;2022-11-20T03:26:17;100166.24;;;22.92;30.88
63916;BME280;50094;51.356;-0.196;2022-11-20T03:28:47;100162.46;;;23.02;30.86
63916;BME280;50094;51.356;-0.196;2022-11-20T03:31:17;100159.84;;;22.75;30.86
63916;BME280;50094;51.356;-0.196;2022-11-20T03:33:44;100160.98;;;23.01;30.85
63916;BME280;50094;51.356;-0.196;2022-11-20T03:36:14;100154.62;;;22.88;30.92
63916;BME280;50094;51.356;-0.196;2022-11-20T03:38:42;100148.43;;;23.15;30.94
63916;BME280;50094;51.356;-0.196;2022-11-20T03:41:11;100146.48;;;22.90;30.98
63916;BME280;50094;51.356;-0.196;2022-11-20T03:43:39;100146.76;;;23.19;30.95
63916;BME280;50094;51.356;-0.196;2022-11-20T03:46:07;100145.71;;;22.95;30.96
63916;BME280;50094;51.356;-0.196;2022-11-20T03:48:34;100140.06;;;23.20;30.93
63916;BME280;50094;51.356;-0.196;2022-11-20T03:51:11;100138.91;;;22.73;30.92
63916;BME280;50094;51.356;-0.196;2022-11-20T03:53:39;100130.32;;;22.96;30.99
63916;BME280;50094;51.356;-0.196;2022-11-20T03:56:08;100123.98;;;22.29;30.96
63916;BME280;50094;51.356;-0.196;2022-11-20T03:58:37;100121.01;;;23.35;30.75
63916;BME280;50094;51.356;-0.196;2022-11-20T04:01:06;100118.21;;;23.02;30.78
63916;BME280;50094;51.356;-0.196;2022-11-20T04:03:34;100113.86;;;23.18;30.84
63916;BME280;50094;51.356;-0.196;2022-11-20T04:06:03;100107.61;;;22.94;30.85
63916;BME280;50094;51.356;-0.196;2022-11-20T04:08:31;100108.01;;;23.28;30.93
63916;BME280;50094;51.356;-0.196;2022-11-20T04:11:08;100103.74;;;23.20;30.99
63916;BME280;50094;51.356;-0.196;2022-11-20T04:13:36;100103.43;;;23.25;31.00
63916;BME280;50094;51.356;-0.196;2022-11-20T04:16:04;100102.92;;;23.02;31.00
63916;BME280;50094;51.356;-0.196;2022-11-20T04:18:32;100100.04;;;23.20;31.05
63916;BME280;50094;51.356;-0.196;2022-11-20T04:21:00;100098.08;;;23.19;31.07
63916;BME280;50094;51.356;-0.196;2022-11-20T04:23:28;100094.48;;;23.14;31.10
63916;BME280;50094;51.356;-0.196;2022-11-20T04:26:01;100094.08;;;23.08;31.15
63916;BME280;50094;51.356;-0.196;2022-11-20T04:28:28;100090.88;;;22.99;31.12
63916;BME280;50094;51.356;-0.196;2022-11-20T04:31:02;100085.35;;;23.19;31.16
63916;BME280;50094;51.356;-0.196;2022-11-20T04:33:31;100077.79;;;23.24;31.10
63916;BME280;50094;51.356;-0.196;2022-11-20T04:36:01;100070.72;;;23.02;31.13
63916;BME280;50094;51.356;-0.196;2022-11-20T04:38:29;100066.29;;;22.98;31.10
63916;BME280;50094;51.356;-0.196;2022-11-20T04:40:57;100069.07;;;22.96;31.13
63916;BME280;50094;51.356;-0.196;2022-11-20T04:43:24;100067.59;;;23.19;31.15
63916;BME280;50094;51.356;-0.196;2022-11-20T04:45:53;100065.77;;;23.13;31.18
63916;BME280;50094;51.356;-0.196;2022-11-20T04:48:20;100062.92;;;22.90;31.22
63916;BME280;50094;51.356;-0.196;2022-11-20T04:50:48;100057.38;;;22.60;31.25
63916;BME280;50094;51.356;-0.196;2022-11-20T04:53:15;100049.05;;;22.93;31.21
63916;BME280;50094;51.356;-0.196;2022-11-20T04:55:43;100042.13;;;22.67;31.20
63916;BME280;50094;51.356;-0.196;2022-11-20T04:58:11;100039.98;;;22.83;31.14
63916;BME280;50094;51.356;-0.196;2022-11-20T05:00:38;100033.68;;;23.00;31.19
63916;BME280;50094;51.356;-0.196;2022-11-20T05:03:06;100029.16;;;22.99;31.19
63916;BME280;50094;51.356;-0.196;2022-11-20T05:05:33;100028.44;;;23.21;31.16
63916;BME280;50094;51.356;-0.196;2022-11-20T05:08:01;100031.58;;;22.58;31.25
63916;BME280;50094;51.356;-0.196;2022-11-20T05:10:28;100024.91;;;23.18;31.23
63916;BME280;50094;51.356;-0.196;2022-11-20T05:12:57;100019.95;;;22.91;31.24
63916;BME280;50094;51.356;-0.196;2022-11-20T05:15:24;100013.76;;;22.92;31.25
63916;BME280;50094;51.356;-0.196;2022-11-20T05:17:52;100008.71;;;23.11;31.28
63916;BME280;50094;51.356;-0.196;2022-11-20T05:20:19;100005.75;;;22.91;31.28
63916;BME280;50094;51.356;-0.196;2022-11-20T05:22:47;100003.39;;;22.97;31.25
63916;BME280;50094;51.356;-0.196;2022-11-20T05:25:14;99992.90;;;22.92;31.29
63916;BME280;50094;51.356;-0.196;2022-11-20T05:27:42;99984.92;;;22.93;31.29
63916;BME280;50094;51.356;-0.196;2022-11-20T05:30:10;99979.59;;;22.90;31.31
63916;BME280;50094;51.356;-0.196;2022-11-20T05:32:37;99981.93;;;23.11;31.33
63916;BME280;50094;51.356;-0.196;2022-11-20T05:35:06;99979.59;;;23.13;31.34
63916;BME280;50094;51.356;-0.196;2022-11-20T05:37:33;99973.76;;;23.11;31.37
63916;BME280;50094;51.356;-0.196;2022-11-20T05:40:01;99967.16;;;23.11;31.36
63916;BME280;50094;51.356;-0.196;2022-11-20T05:42:30;99963.66;;;23.09;31.38
63916;BME280;50094;51.356;-0.196;2022-11-20T05:44:57;99959.11;;;22.88;31.38
63916;BME280;50094;51.356;-0.196;2022-11-20T05:47:25;99961.74;;;23.07;31.41
63916;BME280;50094;51.356;-0.196;2022-11-20T05:49:53;99959.44;;;23.09;31.42
63916;BME280;50094;51.356;-0.196;2022-11-20T05:52:20;99958.96;;;23.06;31.46
63916;BME280;50094;51.356;-0.196;2022-11-20T05:54:47;99953.13;;;23.11;31.42
63916;BME280;50094;51.356;-0.196;2022-11-20T05:57:14;99954.71;;;22.86;31.45
63916;BME280;50094;51.356;-0.196;2022-11-20T05:59:43;99950.07;;;23.11;31.45
63916;BME280;50094;51.356;-0.196;2022-11-20T06:02:11;99948.70;;;22.90;31.46
63916;BME280;50094;51.356;-0.196;2022-11-20T06:04:38;99948.87;;;22.84;31.53
63916;BME280;50094;51.356;-0.196;2022-11-20T06:07:06;99942.93;;;22.88;31.55
63916;BME280;50094;51.356;-0.196;2022-11-20T06:09:34;99935.00;;;23.12;31.62
63916;BME280;50094;51.356;-0.196;2022-11-20T06:12:01;99930.81;;;23.18;31.65
63916;BME280;50094;51.356;-0.196;2022-11-20T06:14:28;99927.00;;;22.98;31.75
63916;BME280;50094;51.356;-0.196;2022-11-20T06:16:55;99924.24;;;23.07;31.79
63916;BME280;50094;51.356;-0.196;2022-11-20T06:19:22;99915.21;;;23.11;31.89
63916;BME280;50094;51.356;-0.196;2022-11-20T06:21:49;99906.96;;;23.13;31.92
63916;BME280;50094;51.356;-0.196;2022-11-20T06:24:17;99903.32;;;23.33;31.99
63916;BME280;50094;51.356;-0.196;2022-11-20T06:26:45;99900.12;;;23.17;32.05
63916;BME280;50094;51.356;-0.196;2022-11-20T06:29:12;99894.15;;;22.95;32.05
63916;BME280;50094;51.356;-0.196;2022-11-20T06:31:39;99889.20;;;22.97;32.09
63916;BME280;50094;51.356;-0.196;2022-11-20T06:34:07;99887.32;;;23.29;32.10
63916;BME280;50094;51.356;-0.196;2022-11-20T06:36:35;99882.18;;;23.44;32.04
63916;BME280;50094;51.356;-0.196;2022-11-20T06:39:03;99877.06;;;22.95;32.09
63916;BME280;50094;51.356;-0.196;2022-11-20T06:41:30;99871.25;;;23.20;32.05
63916;BME280;50094;51.356;-0.196;2022-11-20T06:43:57;99867.41;;;23.10;32.17
63916;BME280;50094;51.356;-0.196;2022-11-20T06:46:25;99862.03;;;23.40;32.16
63916;BME280;50094;51.356;-0.196;2022-11-20T06:48:53;99861.01;;;23.15;32.21
63916;BME280;50094;51.356;-0.196;2022-11-20T06:51:20;99853.58;;;23.57;32.24
63916;BME280;50094;51.356;-0.196;2022-11-20T06:53:47;99849.54;;;23.33;32.31
63916;BME280;50094;51.356;-0.196;2022-11-20T06:56:13;99845.43;;;23.18;32.26
63916;BME280;50094;51.356;-0.196;2022-11-20T06:58:40;99842.40;;;23.43;32.32
63916;BME280;50094;51.356;-0.196;2022-11-20T07:01:12;99826.61;;;23.22;32.23
63916;BME280;50094;51.356;-0.196;2022-11-20T07:03:40;99824.72;;;23.26;32.27
63916;BME280;50094;51.356;-0.196;2022-11-20T07:06:08;99819.36;;;23.21;32.36
63916;BME280;50094;51.356;-0.196;2022-11-20T07:08:35;99816.49;;;23.18;32.39
63916;BME280;50094;51.356;-0.196;2022-11-20T07:11:05;99812.70;;;23.17;32.42
63916;BME280;50094;51.356;-0.196;2022-11-20T07:13:33;99808.95;;;23.24;32.42
63916;BME280;50094;51.356;-0.196;2022-11-20T07:16:03;99808.50;;;23.23;32.42
63916;BME280;50094;51.356;-0.196;2022-11-20T07:18:31;99816.79;;;23.26;32.42
63916;BME280;50094;51.356;-0.196;2022-11-20T07:21:00;99898.56;;;23.52;32.59
63916;BME280;50094;51.356;-0.196;2022-11-20T07:23:27;99911.15;;;23.27;32.87
63916;BME280;50094;51.356;-0.196;2022-11-20T07:25:54;99892.81;;;23.28;32.83
63916;BME280;50094;51.356;-0.196;2022-11-20T07:28:21;99886.02;;;23.31;32.92
63916;BME280;50094;51.356;-0.196;2022-11-20T07:30:50;99889.96;;;23.26;32.91
63916;BME280;50094;51.356;-0.196;2022-11-20T07:33:18;99890.75;;;23.30;32.87
63916;BME280;50094;51.356;-0.196;2022-11-20T07:35:46;99885.41;;;23.33;32.79
63916;BME280;50094;51.356;-0.196;2022-11-20T07:38:14;99883.98;;;23.37;32.76
63916;BME280;50094;51.356;-0.196;2022-11-20T07:40:41;99881.50;;;23.38;32.75
63916;BME280;50094;51.356;-0.196;2022-11-20T07:43:08;99881.02;;;23.35;32.72
63916;BME280;50094;51.356;-0.196;2022-11-20T07:45:35;99879.02;;;23.36;32.73
63916;BME280;50094;51.356;-0.196;2022-11-20T07:48:02;99881.71;;;23.09;32.75
63916;BME280;50094;51.356;-0.196;2022-11-20T07:50:30;99882.12;;;23.58;32.81
63916;BME280;50094;51.356;-0.196;2022-11-20T07:53:02;99883.82;;;23.32;32.82
63916;BME280;50094;51.356;-0.196;2022-11-20T07:55:30;99880.20;;;23.31;32.79
63916;BME280;50094;51.356;-0.196;2022-11-20T07:57:57;99877.84;;;23.38;32.82
63916;BME280;50094;51.356;-0.196;2022-11-20T08:00:26;99884.52;;;23.44;32.75
63916;BME280;50094;51.356;-0.196;2022-11-20T08:02:53;99886.50;;;23.42;32.81
63916;BME280;50094;51.356;-0.196;2022-11-20T08:05:21;99893.12;;;23.69;32.84
63916;BME280;50094;51.356;-0.196;2022-11-20T08:07:48;99898.55;;;23.72;32.86
63916;BME280;50094;51.356;-0.196;2022-11-20T08:10:16;99904.66;;;23.38;32.91
63916;BME280;50094;51.356;-0.196;2022-11-20T08:12:45;99904.32;;;23.41;32.91
63916;BME280;50094;51.356;-0.196;2022-11-20T08:15:12;99907.06;;;23.73;32.90
63916;BME280;50094;51.356;-0.196;2022-11-20T08:17:40;99908.65;;;23.71;33.05
63916;BME280;50094;51.356;-0.196;2022-11-20T08:20:08;99915.23;;;23.49;32.93
63916;BME280;50094;51.356;-0.196;2022-11-20T08:22:35;99921.90;;;23.52;33.10
63916;BME280;50094;51.356;-0.196;2022-11-20T08:25:03;99926.70;;;23.35;33.00
63916;BME280;50094;51.356;-0.196;2022-11-20T08:27:31;99931.21;;;23.56;32.87
63916;BME280;50094;51.356;-0.196;2022-11-20T08:29:59;99939.59;;;23.52;32.96
63916;BME280;50094;51.356;-0.196;2022-11-20T08:32:26;99946.27;;;23.47;33.18
63916;BME280;50094;51.356;-0.196;2022-11-20T08:34:52;99951.08;;;23.70;33.05
63916;BME280;50094;51.356;-0.196;2022-11-20T08:37:19;99951.73;;;23.75;33.09
63916;BME280;50094;51.356;-0.196;2022-11-20T08:39:46;99955.00;;;23.48;33.06
63916;BME280;50094;51.356;-0.196;2022-11-20T08:42:13;99956.59;;;23.22;33.08
63916;BME280;50094;51.356;-0.196;2022-11-20T08:44:40;99952.81;;;23.38;33.29
63916;BME280;50094;51.356;-0.196;2022-11-20T08:47:07;99951.05;;;23.32;33.42
63916;BME280;50094;51.356;-0.196;2022-11-20T08:49:35;99951.46;;;23.37;33.52
63916;BME280;50094;51.356;-0.196;2022-11-20T08:52:02;99964.28;;;23.17;33.63
63916;BME280;50094;51.356;-0.196;2022-11-20T08:54:30;99970.67;;;23.37;33.66
63916;BME280;50094;51.356;-0.196;2022-11-20T08:56:57;99970.81;;;23.87;33.76
63916;BME280;50094;51.356;-0.196;2022-11-20T08:59:24;99978.70;;;23.46;33.57
63916;BME280;50094;51.356;-0.196;2022-11-20T09:01:51;99984.12;;;23.73;33.66
63916;BME280;50094;51.356;-0.196;2022-11-20T09:04:18;99990.50;;;23.18;33.73
63916;BME280;50094;51.356;-0.196;2022-11-20T09:06:45;99991.38;;;23.38;33.79
63916;BME280;50094;51.356;-0.196;2022-11-20T09:09:12;99991.77;;;23.39;33.80
63916;BME280;50094;51.356;-0.196;2022-11-20T09:11:39;99989.93;;;23.64;33.83
63916;BME280;50094;51.356;-0.196;2022-11-20T09:14:06;99985.88;;;23.29;33.70
63916;BME280;50094;51.356;-0.196;2022-11-20T09:16:33;99988.78;;;23.50;33.66
63916;BME280;50094;51.356;-0.196;2022-11-20T09:19:01;99986.43;;;23.27;33.67
63916;BME280;50094;51.356;-0.196;2022-11-20T09:21:28;99987.11;;;23.28;33.92
63916;BME280;50094;51.356;-0.196;2022-11-20T09:23:55;99983.90;;;23.32;33.86
63916;BME280;50094;51.356;-0.196;2022-11-20T09:26:22;99981.92;;;23.54;33.88
63916;BME280;50094;51.356;-0.196;2022-11-20T09:28:49;99990.45;;;23.78;33.87
63916;BME280;50094;51.356;-0.196;2022-11-20T09:31:22;99986.20;;;23.25;33.89
63916;BME280;50094;51.356;-0.196;2022-11-20T09:33:49;99993.27;;;23.19;33.80
63916;BME280;50094;51.356;-0.196;2022-11-20T09:36:17;100000.80;;;23.18;33.79
63916;BME280;50094;51.356;-0.196;2022-11-20T09:38:44;100009.58;;;23.55;33.69
63916;BME280;50094;51.356;-0.196;2022-11-20T09:41:29;100011.46;;;23.55;33.57
63916;BME280;50094;51.356;-0.196;2022-11-20T09:44:10;100013.62;;;23.53;33.53
63916;BME280;50094;51.356;-0.196;2022-11-20T09:46:47;100008.52;;;23.54;33.48
63916;BME280;50094;51.356;-0.196;2022-11-20T09:49:25;100004.00;;;23.55;33.48
63916;BME280;50094;51.356;-0.196;2022-11-20T09:51:58;100002.36;;;23.73;33.52
63916;BME280;50094;51.356;-0.196;2022-11-20T09:54:30;100005.56;;;23.23;33.44
63916;BME280;50094;51.356;-0.196;2022-11-20T09:57:01;100002.38;;;23.45;33.52
63916;BME280;50094;51.356;-0.196;2022-11-20T09:59:35;99989.89;;;23.44;33.59
63916;BME280;50094;51.356;-0.196;2022-11-20T10:02:16;99977.67;;;23.23;33.44
63916;BME280;50094;51.356;-0.196;2022-11-20T10:04:47;99974.61;;;23.20;33.49
63916;BME280;50094;51.356;-0.196;2022-11-20T10:07:20;99988.35;;;23.53;33.59
63916;BME280;50094;51.356;-0.196;2022-11-20T10:09:52;99989.93;;;23.22;33.57
63916;BME280;50094;51.356;-0.196;2022-11-20T10:12:27;99990.85;;;23.48;33.54
63916;BME280;50094;51.356;-0.196;2022-11-20T10:15:11;99993.50;;;23.68;33.59
63916;BME280;50094;51.356;-0.196;2022-11-20T10:18:00;99992.44;;;23.17;33.61
63916;BME280;50094;51.356;-0.196;2022-11-20T10:20:39;99987.41;;;23.17;33.65
63916;BME280;50094;51.356;-0.196;2022-11-20T10:24:26;99984.01;;;23.66;33.58
63916;BME280;50094;51.356;-0.196;2022-11-20T10:27:04;99983.05;;;23.43;33.58
63916;BME280;50094;51.356;-0.196;2022-11-20T10:29:36;99983.69;;;23.45;33.73
63916;BME280;50094;51.356;-0.196;2022-11-20T10:32:11;99989.97;;;23.16;33.64
63916;BME280;50094;51.356;-0.196;2022-11-20T10:34:47;99989.36;;;23.18;33.61
63916;BME280;50094;51.356;-0.196;2022-11-20T10:37:18;99982.89;;;23.22;33.57
63916;BME280;50094;51.356;-0.196;2022-11-20T10:39:54;99980.74;;;23.45;33.75
63916;BME280;50094;51.356;-0.196;2022-11-20T10:42:28;99988.53;;;23.20;33.61
63916;BME280;50094;51.356;-0.196;2022-11-20T10:45:06;99992.43;;;23.67;33.61
63916;BME280;50094;51.356;-0.196;2022-11-20T10:47:38;99992.16;;;23.45;33.74
63916;BME280;50094;51.356;-0.196;2022-11-20T10:50:11;99990.16;;;23.44;33.64
63916;BME280;50094;51.356;-0.196;2022-11-20T10:52:45;99986.35;;;23.65;33.57
63916;BME280;50094;51.356;-0.196;2022-11-20T10:55:27;99984.77;;;23.16;33.78
63916;BME280;50094;51.356;-0.196;2022-11-20T10:58:03;99980.37;;;23.41;33.77
63916;BME280;50094;51.356;-0.196;2022-11-20T11:00:31;99979.68;;;23.44;33.68
63916;BME280;50094;51.356;-0.196;2022-11-20T11:02:58;99979.70;;;23.09;33.82
63916;BME280;50094;51.356;-0.196;2022-11-20T11:05:34;99989.34;;;23.18;33.79
63916;BME280;50094;51.356;-0.196;2022-11-20T11:08:05;99988.08;;;23.42;33.79
63916;BME280;50094;51.356;-0.196;2022-11-20T11:10:41;99988.39;;;23.17;33.80
63916;BME280;50094;51.356;-0.196;2022-11-20T11:13:20;99986.92;;;23.40;33.98
63916;BME280;50094;51.356;-0.196;2022-11-20T11:15:47;99987.61;;;23.64;33.87
63916;BME280;50094;51.356;-0.196;2022-11-20T11:18:24;99987.67;;;23.39;34.00
63916;BME280;50094;51.356;-0.196;2022-11-20T11:20:54;99983.74;;;23.35;33.92
63916;BME280;50094;51.356;-0.196;2022-11-20T11:23:31;99985.56;;;23.28;34.07
63916;BME280;50094;51.356;-0.196;2022-11-20T11:26:00;99987.67;;;23.25;34.18
63916;BME280;50094;51.356;-0.196;2022-11-20T11:28:28;99976.93;;;23.25;34.19
63916;BME280;50094;51.356;-0.196;2022-11-20T11:30:55;99983.33;;;23.23;34.23
63916;BME280;50094;51.356;-0.196;2022-11-20T11:33:25;99983.82;;;23.05;34.11
63916;BME280;50094;51.356;-0.196;2022-11-20T11:35:55;99981.03;;;23.52;34.04
63916;BME280;50094;51.356;-0.196;2022-11-20T11:38:29;99981.61;;;23.03;33.98
63916;BME280;50094;51.356;-0.196;2022-11-20T11:40:58;99976.63;;;23.51;34.15
63916;BME280;50094;51.356;-0.196;2022-11-20T11:43:28;99976.48;;;23.49;34.18
63916;BME280;50094;51.356;-0.196;2022-11-20T11:45:56;99967.97;;;23.38;34.06
63916;BME280;50094;51.356;-0.196;2022-11-20T11:48:23;99968.80;;;23.38;34.06
63916;BME280;50094;51.356;-0.196;2022-11-20T11:50:51;99967.60;;;23.32;34.12
63916;BME280;50094;51.356;-0.196;2022-11-20T11:53:19;99964.99;;;23.48;34.20
63916;BME280;50094;51.356;-0.196;2022-11-20T11:55:51;99965.01;;;23.42;34.26
63916;BME280;50094;51.356;-0.196;2022-11-20T11:58:37;99963.35;;;23.26;34.22
63916;BME280;50094;51.356;-0.196;2022-11-20T12:01:17;99961.44;;;23.30;34.20
63916;BME280;50094;51.356;-0.196;2022-11-20T12:03:55;99957.90;;;23.26;34.26
63916;BME280;50094;51.356;-0.196;2022-11-20T12:06:23;99961.09;;;23.23;34.35
63916;BME280;50094;51.356;-0.196;2022-11-20T12:08:55;99955.02;;;23.36;34.52
63916;BME280;50094;51.356;-0.196;2022-11-20T12:11:31;99961.63;;;23.25;34.39
63916;BME280;50094;51.356;-0.196;2022-11-20T12:14:04;99961.45;;;23.49;34.36
63916;BME280;50094;51.356;-0.196;2022-11-20T12:16:37;99963.39;;;23.50;34.30
63916;BME280;50094;51.356;-0.196;2022-11-20T12:19:09;99966.39;;;23.24;34.29
63916;BME280;50094;51.356;-0.196;2022-11-20T12:21:46;99964.29;;;22.95;34.39
63916;BME280;50094;51.356;-0.196;2022-11-20T12:24:35;99967.68;;;23.43;34.38
63916;BME280;50094;51.356;-0.196;2022-11-20T12:27:28;99973.06;;;23.16;34.48
63916;BME280;50094;51.356;-0.196;2022-11-20T12:30:01;99966.66;;;23.20;34.48
63916;BME280;50094;51.356;-0.196;2022-11-20T12:32:49;99961.20;;;23.15;34.48
63916;BME280;50094;51.356;-0.196;2022-11-20T12:35:34;99964.24;;;23.36;34.40
63916;BME280;50094;51.356;-0.196;2022-11-20T12:38:32;99970.37;;;23.20;34.43
63916;BME280;50094;51.356;-0.196;2022-11-20T12:41:05;99977.51;;;22.94;34.38
63916;BME280;50094;51.356;-0.196;2022-11-20T12:43:43;99977.80;;;23.29;34.60
63916;BME280;50094;51.356;-0.196;2022-11-20T12:46:18;99975.04;;;23.45;34.49
63916;BME280;50094;51.356;-0.196;2022-11-20T12:49:01;99975.75;;;23.41;34.44
63916;BME280;50094;51.356;-0.196;2022-11-20T12:51:43;99973.80;;;23.35;34.56
63916;BME280;50094;51.356;-0.196;2022-11-20T12:54:32;99972.79;;;23.33;34.66
63916;BME280;50094;51.356;-0.196;2022-11-20T12:57:09;99972.31;;;23.28;34.70
63916;BME280;50094;51.356;-0.196;2022-11-20T13:00:02;99974.19;;;23.35;34.55
63916;BME280;50094;51.356;-0.196;2022-11-20T13:02:36;99975.59;;;23.13;34.66